createdAt,value
2022-12-02T00:00:19.706Z,55.08
2022-12-02T00:03:04.743Z,53.59
2022-12-02T00:05:50.020Z,54.16
2022-12-02T00:08:34.958Z,53.67
2022-12-02T00:11:19.789Z,54.38
2022-12-02T00:14:04.757Z,53.60
2022-12-02T00:16:49.683Z,53.73
2022-12-02T00:19:34.623Z,54.56
2022-12-02T00:22:19.696Z,54.71
2022-12-02T00:25:04.707Z,54.22
2022-12-02T00:27:50.033Z,54.03
2022-12-02T00:30:34.907Z,55.02
2022-12-02T00:33:19.906Z,55.15
2022-12-02T00:36:04.835Z,54.39
2022-12-02T00:38:49.770Z,55.52
2022-12-02T00:41:34.671Z,54.92
2022-12-02T00:44:19.669Z,53.79
2022-12-02T00:47:04.581Z,55.76
2022-12-02T00:49:49.528Z,55.88
2022-12-02T00:52:34.524Z,56.53
2022-12-02T00:55:19.466Z,56.66
2022-12-02T00:58:04.309Z,55.42
2022-12-02T01:00:49.327Z,55.47
2022-12-02T01:03:34.710Z,55.71
2022-12-02T01:06:19.831Z,54.42
2022-12-02T01:09:04.751Z,54.86
2022-12-02T01:11:49.745Z,55.57
2022-12-02T01:14:34.645Z,55.24
2022-12-02T01:17:19.536Z,56.21
2022-12-02T01:20:04.470Z,56.02
2022-12-02T01:22:49.832Z,56.08
2022-12-02T01:25:34.883Z,56.42
2022-12-02T01:28:19.919Z,55.12
2022-12-02T01:31:05.041Z,55.14
2022-12-02T01:33:49.912Z,54.99
2022-12-02T01:36:35.039Z,54.26
2022-12-02T01:39:19.862Z,55.61
2022-12-02T01:42:04.802Z,56.45
2022-12-02T01:44:50.136Z,55.67
2022-12-02T01:47:35.263Z,55.93
2022-12-02T01:50:20.252Z,55.93
2022-12-02T01:53:05.090Z,55.36
2022-12-02T01:55:50.044Z,54.86
2022-12-02T01:58:34.897Z,55.65
2022-12-02T02:01:20.001Z,55.95
2022-12-02T02:04:05.316Z,56.36
2022-12-02T02:06:50.304Z,56.55
2022-12-02T02:09:35.382Z,56.40
2022-12-02T02:12:20.189Z,55.67
2022-12-02T02:15:05.107Z,55.10
2022-12-02T02:17:49.865Z,56.38
2022-12-02T02:20:34.989Z,56.12
2022-12-02T02:23:19.830Z,55.22
2022-12-02T02:26:04.705Z,55.06
2022-12-02T02:28:49.731Z,56.10
2022-12-02T02:31:34.598Z,55.98
2022-12-02T02:34:19.539Z,55.93
2022-12-02T02:37:04.404Z,55.44
2022-12-02T02:39:49.370Z,55.92
2022-12-02T02:42:34.300Z,57.10
2022-12-02T02:45:19.348Z,56.68
2022-12-02T02:48:04.262Z,55.99
2022-12-02T02:50:49.327Z,57.29
2022-12-02T02:53:34.181Z,56.45
2022-12-02T02:56:19.149Z,56.90
2022-12-02T02:59:04.052Z,56.46
2022-12-02T03:01:49.042Z,56.64
2022-12-02T03:04:34.344Z,56.13
2022-12-02T03:07:19.265Z,56.06
2022-12-02T03:10:04.246Z,56.29
2022-12-02T03:12:49.068Z,56.58
2022-12-02T03:15:33.880Z,56.55
2022-12-02T03:18:18.724Z,57.99
2022-12-02T03:21:03.608Z,57.47
2022-12-02T03:23:48.609Z,56.47
2022-12-02T03:26:33.474Z,56.27
2022-12-02T03:29:18.350Z,57.17
2022-12-02T03:32:03.158Z,57.87
2022-12-02T03:34:48.219Z,57.98
2022-12-02T03:37:33.432Z,58.47
2022-12-02T03:40:18.328Z,58.71
2022-12-02T03:43:03.209Z,58.21
2022-12-02T03:45:48.248Z,58.50
2022-12-02T03:48:33.694Z,58.17
2022-12-02T03:51:18.574Z,58.62
2022-12-02T03:54:03.531Z,59.17
2022-12-02T03:56:48.371Z,59.04
2022-12-02T03:59:33.145Z,58.21
2022-12-02T04:02:18.091Z,58.49
2022-12-02T04:05:03.164Z,58.76
2022-12-02T04:07:48.130Z,59.86
2022-12-02T04:10:32.865Z,59.74
2022-12-02T04:13:17.766Z,59.82
2022-12-02T04:16:02.878Z,60.80
2022-12-02T04:18:48.152Z,59.66
2022-12-02T04:21:33.096Z,59.26
2022-12-02T04:24:18.085Z,59.98
2022-12-02T04:27:03.115Z,59.75
2022-12-02T04:29:47.973Z,59.83
2022-12-02T04:32:32.968Z,59.95
2022-12-02T04:35:17.850Z,60.01
2022-12-02T04:38:06.139Z,61.20
2022-12-02T04:40:55.533Z,59.54
2022-12-02T04:43:40.390Z,59.52
2022-12-02T04:46:25.664Z,60.32
2022-12-02T04:49:10.963Z,59.38
2022-12-02T04:51:55.721Z,59.40
2022-12-02T04:54:40.844Z,59.52
2022-12-02T04:57:31.151Z,59.33
2022-12-02T05:00:16.804Z,60.45
2022-12-02T05:03:01.748Z,59.88
2022-12-02T05:05:46.634Z,60.99
2022-12-02T05:08:31.489Z,59.79
2022-12-02T05:11:16.345Z,59.80
2022-12-02T05:14:01.402Z,60.41
2022-12-02T05:16:46.269Z,60.04
2022-12-02T05:19:31.056Z,60.41
2022-12-02T05:22:15.984Z,59.90
2022-12-02T05:25:02.195Z,60.68
2022-12-02T05:27:47.393Z,59.82
2022-12-02T05:30:32.203Z,59.13
2022-12-02T05:33:17.152Z,59.76
2022-12-02T05:36:01.935Z,59.89
2022-12-02T05:38:46.889Z,59.95
2022-12-02T05:41:31.648Z,59.99
2022-12-02T05:44:16.602Z,59.91
2022-12-02T05:47:01.574Z,58.43
2022-12-02T05:49:46.344Z,58.57
2022-12-02T05:52:31.455Z,59.02
2022-12-02T05:55:16.419Z,60.32
2022-12-02T05:58:01.572Z,60.00
2022-12-02T06:00:46.460Z,61.21
2022-12-02T06:03:32.272Z,60.12
2022-12-02T06:06:17.655Z,59.88
2022-12-02T06:09:02.518Z,59.71
2022-12-02T06:11:47.340Z,60.13
2022-12-02T06:14:32.197Z,58.85
2022-12-02T06:17:17.166Z,58.72
2022-12-02T06:20:02.133Z,59.62
2022-12-02T06:22:47.013Z,59.47
2022-12-02T06:25:31.969Z,59.01
2022-12-02T06:28:17.011Z,59.15
2022-12-02T06:31:02.019Z,58.66
2022-12-02T06:33:46.736Z,58.11
2022-12-02T06:36:31.819Z,57.80
2022-12-02T06:39:16.634Z,59.60
2022-12-02T06:42:01.609Z,59.59
2022-12-02T06:44:46.280Z,60.00
2022-12-02T06:47:31.231Z,58.75
2022-12-02T06:50:16.028Z,59.01
2022-12-02T06:53:01.255Z,57.67
2022-12-02T06:55:46.553Z,59.40
2022-12-02T06:58:31.291Z,60.11
2022-12-02T07:01:16.215Z,59.60
2022-12-02T07:04:01.135Z,60.53
2022-12-02T07:06:46.088Z,60.02
2022-12-02T07:09:30.749Z,60.40
2022-12-02T07:12:15.614Z,59.85
2022-12-02T07:15:00.470Z,59.71
2022-12-02T07:17:45.333Z,60.28
2022-12-02T07:20:30.355Z,60.90
2022-12-02T07:23:15.710Z,60.44
2022-12-02T07:26:00.831Z,60.28
2022-12-02T07:28:46.180Z,59.50
2022-12-02T07:31:31.092Z,57.79
2022-12-02T07:34:16.376Z,58.40
2022-12-02T07:37:01.349Z,58.67
2022-12-02T07:39:46.495Z,58.45
2022-12-02T07:42:31.743Z,58.44
2022-12-02T07:45:16.564Z,58.45
2022-12-02T07:48:01.450Z,58.61
2022-12-02T07:50:46.455Z,57.53
2022-12-02T07:53:31.259Z,57.35
2022-12-02T07:56:16.119Z,57.98
2022-12-02T07:59:16.216Z,58.52
2022-12-02T08:02:01.516Z,57.00
2022-12-02T08:04:46.960Z,57.87
2022-12-02T08:07:31.815Z,56.64
2022-12-02T08:10:16.747Z,56.24
2022-12-02T08:13:01.594Z,57.03
2022-12-02T08:15:49.793Z,56.57
2022-12-02T08:18:38.977Z,56.95
2022-12-02T08:21:23.824Z,57.03
2022-12-02T08:24:08.842Z,57.22
2022-12-02T08:26:53.734Z,58.62
2022-12-02T08:29:38.600Z,58.48
2022-12-02T08:32:23.564Z,57.50
2022-12-02T08:35:08.583Z,57.81
2022-12-02T08:37:53.539Z,57.72
2022-12-02T08:40:38.568Z,57.17
2022-12-02T08:43:23.543Z,56.84
2022-12-02T08:46:08.428Z,56.24
2022-12-02T08:48:53.250Z,57.14
2022-12-02T08:51:38.048Z,55.32
2022-12-02T08:54:22.931Z,55.35
2022-12-02T08:57:08.086Z,55.36
2022-12-02T08:59:52.953Z,54.81
2022-12-02T09:02:37.926Z,55.33
2022-12-02T09:05:22.704Z,54.39
2022-12-02T09:08:07.668Z,57.16
2022-12-02T09:10:52.564Z,56.51
2022-12-02T09:13:37.486Z,56.29
2022-12-02T09:16:22.475Z,55.58
2022-12-02T09:19:07.332Z,56.53
2022-12-02T09:21:52.488Z,57.58
2022-12-02T09:24:37.397Z,56.06
2022-12-02T09:27:22.410Z,57.21
2022-12-02T09:30:07.131Z,56.95
2022-12-02T09:32:52.119Z,56.92
2022-12-02T09:35:37.003Z,56.58
2022-12-02T09:38:22.366Z,57.50
2022-12-02T09:41:07.378Z,57.97
2022-12-02T09:43:52.192Z,59.94
2022-12-02T09:46:37.144Z,57.24
2022-12-02T09:49:22.400Z,58.49
2022-12-02T09:52:07.370Z,57.64
2022-12-02T09:54:52.431Z,57.35
2022-12-02T09:57:40.545Z,57.04
2022-12-02T10:00:25.783Z,56.90
2022-12-02T10:03:16.907Z,55.92
2022-12-02T10:06:03.597Z,55.48
2022-12-02T10:08:48.568Z,56.38
2022-12-02T10:11:33.372Z,56.76
2022-12-02T10:14:18.401Z,56.60
2022-12-02T10:17:03.288Z,55.97
2022-12-02T10:19:48.047Z,56.76
2022-12-02T10:22:33.100Z,56.12
2022-12-02T10:25:17.933Z,55.54
2022-12-02T10:28:02.945Z,53.95
2022-12-02T10:30:47.735Z,53.68
2022-12-02T10:33:32.703Z,53.54
2022-12-02T10:36:17.726Z,51.94
2022-12-02T10:39:02.893Z,52.57
2022-12-02T10:41:47.794Z,54.22
2022-12-02T10:44:32.626Z,53.47
2022-12-02T10:47:22.408Z,52.62
2022-12-02T10:50:10.749Z,52.30
2022-12-02T10:52:55.754Z,55.71
2022-12-02T10:55:40.612Z,54.40
2022-12-02T10:58:25.483Z,57.53
2022-12-02T11:01:11.088Z,57.52
2022-12-02T11:03:56.410Z,54.72
2022-12-02T11:06:41.290Z,54.05
2022-12-02T11:09:41.890Z,53.51
2022-12-02T11:12:26.960Z,53.58
2022-12-02T11:15:11.788Z,51.64
2022-12-02T11:17:56.537Z,50.78
2022-12-02T11:20:41.557Z,49.02
2022-12-02T11:23:26.438Z,50.21
2022-12-02T11:26:11.249Z,51.15
2022-12-02T11:28:56.264Z,52.20
2022-12-02T11:31:41.266Z,51.98
2022-12-02T11:34:26.079Z,52.33
2022-12-02T11:37:10.914Z,54.03
2022-12-02T11:39:55.848Z,52.16
2022-12-02T11:42:40.608Z,51.97
2022-12-02T11:45:25.677Z,51.44
2022-12-02T11:48:11.070Z,51.04
2022-12-02T11:50:55.942Z,50.78
2022-12-02T11:53:41.132Z,53.82
2022-12-02T11:56:26.013Z,53.72
2022-12-02T11:59:10.858Z,55.37
2022-12-02T12:01:55.833Z,55.49
2022-12-02T12:04:41.281Z,54.75
2022-12-02T12:07:26.218Z,53.97
2022-12-02T12:10:11.252Z,54.80
2022-12-02T12:12:56.326Z,55.20
2022-12-02T12:15:41.104Z,54.44
2022-12-02T12:18:26.277Z,54.13
2022-12-02T12:21:11.030Z,56.46
2022-12-02T12:23:56.114Z,56.14
2022-12-02T12:26:40.916Z,54.72
2022-12-02T12:29:25.859Z,55.87
2022-12-02T12:32:10.715Z,54.52
2022-12-02T12:34:55.539Z,55.01
2022-12-02T12:37:40.590Z,53.18
2022-12-02T12:40:25.565Z,54.16
2022-12-02T12:43:10.870Z,54.83
2022-12-02T12:45:55.931Z,54.66
2022-12-02T12:48:40.970Z,55.39
2022-12-02T12:51:25.779Z,56.09
2022-12-02T12:54:10.867Z,55.94
2022-12-02T12:56:55.741Z,56.83
2022-12-02T12:59:40.662Z,56.74
2022-12-02T13:02:25.844Z,56.02
2022-12-02T13:05:10.574Z,56.27
2022-12-02T13:07:55.571Z,55.87
2022-12-02T13:10:40.439Z,54.76
2022-12-02T13:13:25.660Z,53.82
2022-12-02T13:16:10.692Z,54.37
2022-12-02T13:18:55.949Z,53.95
2022-12-02T13:21:41.075Z,54.35
2022-12-02T13:24:26.065Z,54.70
2022-12-02T13:27:10.981Z,54.98
2022-12-02T13:29:55.896Z,55.11
2022-12-02T13:32:40.854Z,55.45
2022-12-02T13:35:25.654Z,54.93
2022-12-02T13:38:13.508Z,55.85
2022-12-02T13:40:58.578Z,55.47
2022-12-02T13:43:43.443Z,55.15
2022-12-02T13:46:28.478Z,54.62
2022-12-02T13:49:13.249Z,55.31
2022-12-02T13:51:58.402Z,54.70
2022-12-02T13:54:43.078Z,54.92
2022-12-02T13:57:29.186Z,53.89
2022-12-02T14:00:14.358Z,54.54
2022-12-02T14:02:59.291Z,55.76
2022-12-02T14:05:44.184Z,55.62
2022-12-02T14:08:29.054Z,54.52
2022-12-02T14:11:13.976Z,55.58
2022-12-02T14:13:59.153Z,55.32
2022-12-02T14:16:44.136Z,53.71
2022-12-02T14:19:29.063Z,55.26
2022-12-02T14:22:13.913Z,55.38
2022-12-02T14:24:58.901Z,54.19
2022-12-02T14:27:43.685Z,54.10
2022-12-02T14:30:28.510Z,53.91
2022-12-02T14:33:13.524Z,53.90
2022-12-02T14:35:58.371Z,55.63
2022-12-02T14:38:43.268Z,55.09
2022-12-02T14:41:28.307Z,55.05
2022-12-02T14:44:13.161Z,55.47
2022-12-02T14:46:58.175Z,55.08
2022-12-02T14:49:43.014Z,55.07
2022-12-02T14:52:27.905Z,55.32
2022-12-02T14:55:12.684Z,54.66
2022-12-02T14:57:57.536Z,55.10
2022-12-02T15:00:42.503Z,55.00
2022-12-02T15:03:27.822Z,54.00
2022-12-02T15:06:13.172Z,54.86
2022-12-02T15:08:58.232Z,54.32
2022-12-02T15:11:43.021Z,56.25
2022-12-02T15:14:28.015Z,56.80
2022-12-02T15:17:12.903Z,55.55
2022-12-02T15:19:58.290Z,55.51
2022-12-02T15:22:43.229Z,55.45
2022-12-02T15:25:28.107Z,55.93
2022-12-02T15:28:12.960Z,56.65
2022-12-02T15:30:57.882Z,57.22
2022-12-02T15:33:42.865Z,57.20
2022-12-02T15:36:27.852Z,58.12
2022-12-02T15:39:12.540Z,58.55
2022-12-02T15:41:57.536Z,58.13
2022-12-02T15:44:42.643Z,58.12
2022-12-02T15:47:27.514Z,57.73
2022-12-02T15:50:12.512Z,58.12
2022-12-02T15:52:57.461Z,57.16
2022-12-02T15:55:42.346Z,58.66
2022-12-02T15:58:27.241Z,57.98
2022-12-02T16:01:12.472Z,56.99
2022-12-02T16:03:57.812Z,56.66
2022-12-02T16:06:42.645Z,56.35
2022-12-02T16:09:27.994Z,56.44
2022-12-02T16:12:13.282Z,57.14
2022-12-02T16:14:58.722Z,56.80
2022-12-02T16:17:43.772Z,56.45
2022-12-02T16:20:28.697Z,57.40
2022-12-02T16:23:13.694Z,57.09
2022-12-02T16:25:58.521Z,57.55
2022-12-02T16:28:43.494Z,58.73
2022-12-02T16:31:28.401Z,56.85
2022-12-02T16:34:13.482Z,57.96
2022-12-02T16:36:58.452Z,57.37
2022-12-02T16:39:43.283Z,56.92
2022-12-02T16:42:28.422Z,56.85
2022-12-02T16:45:13.296Z,57.65
2022-12-02T16:47:58.414Z,58.21
2022-12-02T16:50:43.156Z,58.37
2022-12-02T16:53:28.184Z,57.28
2022-12-02T16:56:12.969Z,57.05
2022-12-02T16:58:58.034Z,57.19
2022-12-02T17:01:42.924Z,58.37
2022-12-02T17:04:27.876Z,57.26
2022-12-02T17:07:12.802Z,56.15
2022-12-02T17:09:57.721Z,56.85
2022-12-02T17:12:42.645Z,57.57
2022-12-02T17:15:27.482Z,57.03
2022-12-02T17:18:12.613Z,56.66
2022-12-02T17:20:57.501Z,57.83
2022-12-02T17:23:42.519Z,57.24
2022-12-02T17:26:27.523Z,56.50
2022-12-02T17:29:12.350Z,58.01
2022-12-02T17:31:57.468Z,56.33
2022-12-02T17:34:42.788Z,56.06
2022-12-02T17:37:27.781Z,56.50
2022-12-02T17:40:12.504Z,55.98
2022-12-02T17:42:57.421Z,55.53
2022-12-02T17:45:42.542Z,56.45
2022-12-02T17:48:27.415Z,55.95
2022-12-02T17:51:12.290Z,55.45
2022-12-02T17:53:57.085Z,55.90
2022-12-02T17:56:42.152Z,56.49
2022-12-02T17:59:27.038Z,57.18
2022-12-02T18:02:12.049Z,56.93
2022-12-02T18:04:57.259Z,55.35
2022-12-02T18:07:42.249Z,56.27
2022-12-02T18:10:27.580Z,55.70
2022-12-02T18:13:12.461Z,55.47
2022-12-02T18:15:57.447Z,55.38
2022-12-02T18:18:42.372Z,55.28
2022-12-02T18:21:27.348Z,56.00
2022-12-02T18:24:12.435Z,57.16
2022-12-02T18:26:57.245Z,57.00
2022-12-02T18:29:42.116Z,57.10
2022-12-02T18:32:26.997Z,56.08
2022-12-02T18:35:11.972Z,56.81
2022-12-02T18:37:56.844Z,57.32
2022-12-02T18:40:42.219Z,56.73
2022-12-02T18:43:30.727Z,56.89
2022-12-02T18:46:18.520Z,57.15
2022-12-02T18:49:03.911Z,57.11
2022-12-02T18:51:48.755Z,57.13
2022-12-02T18:54:33.724Z,57.43
2022-12-02T18:57:18.628Z,57.93
2022-12-02T19:00:03.722Z,57.68
2022-12-02T19:02:48.817Z,57.24
2022-12-02T19:05:33.469Z,57.92
2022-12-02T19:08:18.606Z,57.15
2022-12-02T19:11:03.428Z,58.52
2022-12-02T19:13:48.377Z,58.41
2022-12-02T19:16:33.300Z,58.37
2022-12-02T19:19:18.218Z,58.37
2022-12-02T19:22:03.061Z,57.77
2022-12-02T19:24:47.917Z,57.85
2022-12-02T19:30:38.029Z,57.43
2022-12-02T19:33:23.206Z,57.51
2022-12-02T19:36:08.086Z,57.39
2022-12-02T19:38:53.064Z,57.29
2022-12-02T19:41:38.112Z,56.87
2022-12-02T19:44:22.853Z,57.88
2022-12-02T19:47:11.108Z,58.41
2022-12-02T19:49:56.889Z,57.75
2022-12-02T19:52:42.126Z,57.22
2022-12-02T19:55:26.958Z,57.54
2022-12-02T19:58:11.801Z,57.85
2022-12-02T20:00:56.766Z,59.04
2022-12-02T20:03:41.589Z,57.52
2022-12-02T20:06:26.766Z,57.77
2022-12-02T20:09:11.863Z,57.96
2022-12-02T20:11:56.758Z,59.44
2022-12-02T20:14:42.074Z,58.23
2022-12-02T20:17:27.356Z,58.69
2022-12-02T20:20:12.277Z,58.57
2022-12-02T20:22:56.998Z,58.60
2022-12-02T20:25:41.979Z,58.60
2022-12-02T20:28:27.390Z,58.05
2022-12-02T20:31:12.281Z,59.71
2022-12-02T20:33:57.729Z,60.92
2022-12-02T20:36:42.945Z,60.51
2022-12-02T20:39:28.322Z,60.78
2022-12-02T20:42:13.200Z,60.00
2022-12-02T20:44:58.441Z,58.82
2022-12-02T20:47:44.020Z,58.69
2022-12-02T20:50:28.841Z,59.15
2022-12-02T20:53:13.967Z,58.34
2022-12-02T20:55:58.926Z,59.14
2022-12-02T20:58:43.942Z,59.04
2022-12-02T21:01:28.990Z,59.43
2022-12-02T21:04:14.239Z,59.17
2022-12-02T21:06:59.313Z,59.54
2022-12-02T21:09:44.192Z,59.29
2022-12-02T21:12:29.290Z,58.64
2022-12-02T21:15:14.521Z,59.32
2022-12-02T21:17:59.688Z,60.13
2022-12-02T21:20:44.508Z,59.88
2022-12-02T21:23:29.526Z,61.05
2022-12-02T21:26:14.331Z,60.50
2022-12-02T21:28:59.373Z,60.18
2022-12-02T21:31:44.523Z,60.16
2022-12-02T21:34:29.662Z,59.45
2022-12-02T21:37:14.571Z,59.02
2022-12-02T21:39:59.476Z,59.16
2022-12-02T21:42:44.440Z,58.98
2022-12-02T21:45:29.364Z,57.95
2022-12-02T21:48:14.800Z,58.39
2022-12-02T21:50:59.684Z,59.67
2022-12-02T21:53:44.593Z,58.51
2022-12-02T21:56:34.797Z,58.79
2022-12-02T21:59:21.486Z,58.61
2022-12-02T22:02:06.404Z,58.83
2022-12-02T22:04:51.558Z,59.12
2022-12-02T22:07:36.863Z,59.22
2022-12-02T22:10:22.166Z,58.73
2022-12-02T22:13:06.982Z,58.79
2022-12-02T22:15:51.970Z,59.23
2022-12-02T22:18:37.066Z,59.23
2022-12-02T22:21:21.746Z,58.33
2022-12-02T22:24:06.688Z,58.97
2022-12-02T22:26:51.517Z,59.01
2022-12-02T22:29:36.499Z,57.77
2022-12-02T22:32:21.329Z,58.27
2022-12-02T22:35:06.347Z,57.60
2022-12-02T22:37:51.231Z,57.68
2022-12-02T22:40:36.241Z,57.85
2022-12-02T22:43:21.153Z,58.39
2022-12-02T22:46:06.116Z,58.70
2022-12-02T22:48:51.437Z,58.08
2022-12-02T22:51:36.248Z,58.08
2022-12-02T22:54:21.147Z,58.97
2022-12-02T22:57:05.954Z,58.89
2022-12-02T22:59:50.927Z,58.40
2022-12-02T23:02:35.923Z,59.07
2022-12-02T23:05:20.786Z,58.98
2022-12-02T23:08:05.708Z,59.39
2022-12-02T23:10:50.515Z,58.34
2022-12-02T23:13:35.373Z,58.87
2022-12-02T23:16:20.371Z,59.76
2022-12-02T23:19:05.161Z,58.86
2022-12-02T23:21:50.051Z,58.58
2022-12-02T23:24:34.983Z,59.55
2022-12-02T23:27:19.900Z,60.15
2022-12-02T23:30:04.785Z,59.71
2022-12-02T23:32:49.701Z,60.33
2022-12-02T23:35:34.451Z,61.51
2022-12-02T23:38:19.580Z,60.51
2022-12-02T23:41:04.390Z,60.62
2022-12-02T23:43:49.295Z,60.13
2022-12-02T23:46:34.171Z,61.33
2022-12-02T23:49:19.205Z,62.22
2022-12-02T23:52:04.075Z,60.58
2022-12-02T23:54:49.007Z,64.03
2022-12-02T23:57:33.952Z,61.92
